Terminal Aerodrome Forecast
Issued by NWS

Home | Current Version | Previous Version | Text Only | Print | Product List | Glossary On
Versions: 1 2 3 4 5 6 7 8 9 10 11 12 13 14 15 16 17 18 19 20 21 22 23 24
000
FTUS46 KLOX 282300
TAFOXR
TAF
KOXR 282333Z 2900/2924 34010KT P6SM OVC150
     FM290400 VRB03KT P6SM SCT150
     FM291000 VRB03KT P6SM SCT008
     FM291800 18006KT P6SM SCT200
     FM292100 26012KT P6SM SKC=

USA.gov is the U.S. government's official web portal to all federal, state and local government web resources and services.